createdAt,value
2018-01-13T00:00:45.947Z,102174.17
2018-01-13T00:03:18.685Z,102176.73
2018-01-13T00:05:52.118Z,102180.75
2018-01-13T00:08:24.680Z,102182.74
2018-01-13T00:10:57.878Z,102185.44
2018-01-13T00:13:30.961Z,102182.11
2018-01-13T00:16:03.683Z,102175.54
2018-01-13T00:18:36.426Z,102182.96
2018-01-13T00:21:08.938Z,102174.45
2018-01-13T00:23:41.501Z,102183.36
2018-01-13T00:26:14.162Z,102181.64
2018-01-13T00:28:46.895Z,102184.83
2018-01-13T00:31:20.407Z,102183.80
2018-01-13T00:33:53.069Z,102181.42
2018-01-13T00:36:25.743Z,102181.43
2018-01-13T00:38:59.159Z,102181.08
2018-01-13T00:41:32.103Z,102189.30
2018-01-13T00:44:04.957Z,102184.26
2018-01-13T00:46:38.085Z,102179.95
2018-01-13T00:49:11.618Z,102185.30
2018-01-13T00:51:44.257Z,102172.42
2018-01-13T00:54:16.775Z,102173.47
2018-01-13T00:56:49.937Z,102175.14
2018-01-13T00:59:23.585Z,102169.67
2018-01-13T01:01:56.315Z,102169.39
2018-01-13T01:04:29.105Z,102179.28
2018-01-13T01:07:02.653Z,102180.28
2018-01-13T01:09:35.384Z,102180.34
2018-01-13T01:12:08.010Z,102171.61
2018-01-13T01:14:40.541Z,102176.17
2018-01-13T01:17:13.389Z,102180.94
2018-01-13T01:19:45.923Z,102179.66
2018-01-13T01:22:18.593Z,102179.98
2018-01-13T01:24:51.138Z,102181.80
2018-01-13T01:27:23.794Z,102185.43
2018-01-13T01:29:56.288Z,102188.03
2018-01-13T01:32:30.057Z,102189.70
2018-01-13T01:35:02.691Z,102190.91
2018-01-13T01:37:35.339Z,102188.91
2018-01-13T01:40:08.975Z,102190.14
2018-01-13T01:42:41.500Z,102189.60
2018-01-13T01:45:14.228Z,102192.14
2018-01-13T01:47:47.178Z,102193.48
2018-01-13T01:50:20.733Z,102196.66
2018-01-13T01:52:53.501Z,102189.47
2018-01-13T01:55:25.986Z,102195.14
2018-01-13T01:57:59.819Z,102189.16
2018-01-13T02:00:32.661Z,102191.89
2018-01-13T02:03:05.558Z,102187.13
2018-01-13T02:05:38.181Z,102185.83
2018-01-13T02:08:10.958Z,102179.97
2018-01-13T02:10:43.700Z,102183.14
2018-01-13T02:13:16.569Z,102183.95
2018-01-13T02:15:49.402Z,102185.86
2018-01-13T02:18:22.147Z,102181.93
2018-01-13T02:20:54.886Z,102181.70
2018-01-13T02:23:28.473Z,102186.45
2018-01-13T02:26:01.199Z,102183.11
2018-01-13T02:28:33.759Z,102184.39
2018-01-13T02:31:06.299Z,102189.81
2018-01-13T02:33:38.926Z,102185.67
2018-01-13T02:36:11.456Z,102184.31
2018-01-13T02:38:45.023Z,102183.75
2018-01-13T02:41:17.665Z,102186.52
2018-01-13T02:43:50.186Z,102189.13
2018-01-13T02:46:22.833Z,102183.45
2018-01-13T02:48:56.493Z,102182.05
2018-01-13T02:51:30.131Z,102187.44
2018-01-13T02:54:02.708Z,102182.73
2018-01-13T02:56:35.442Z,102182.84
2018-01-13T02:59:07.980Z,102188.95
2018-01-13T03:01:41.719Z,102181.08
2018-01-13T03:04:14.588Z,102185.64
2018-01-13T03:09:26.154Z,102178.44
2018-01-13T03:11:59.800Z,102188.16
2018-01-13T03:14:32.552Z,102183.78
2018-01-13T03:17:05.087Z,102181.31
2018-01-13T03:22:17.361Z,102178.25
2018-01-13T03:24:49.931Z,102182.08
2018-01-13T03:27:22.561Z,102183.04
2018-01-13T03:29:55.092Z,102180.84
2018-01-13T03:32:28.114Z,102181.54
2018-01-13T03:35:01.397Z,102181.86
2018-01-13T03:37:33.924Z,102176.30
2018-01-13T03:40:06.565Z,102180.16
2018-01-13T03:42:39.194Z,102177.46
2018-01-13T03:45:12.949Z,102171.61
2018-01-13T03:47:46.663Z,102179.86
2018-01-13T03:50:19.294Z,102179.27
2018-01-13T03:52:52.050Z,102173.74
2018-01-13T03:55:24.712Z,102179.26
2018-01-13T03:57:58.794Z,102171.11
2018-01-13T04:00:31.862Z,102170.30
2018-01-13T04:03:04.523Z,102165.30
2018-01-13T04:05:38.042Z,102162.98
2018-01-13T04:08:11.703Z,102156.09
2018-01-13T04:10:44.563Z,102160.02
2018-01-13T04:13:17.727Z,102159.64
2018-01-13T04:15:50.458Z,102157.00
2018-01-13T04:18:23.332Z,102150.91
2018-01-13T04:20:56.263Z,102156.19
2018-01-13T04:23:29.848Z,102152.72
2018-01-13T04:26:02.459Z,102155.59
2018-01-13T04:28:35.232Z,102153.90
2018-01-13T04:31:08.860Z,102162.31
2018-01-13T04:33:41.603Z,102165.17
2018-01-13T04:36:14.249Z,102161.09
2018-01-13T04:38:47.119Z,102167.55
2018-01-13T04:41:19.748Z,102157.16
2018-01-13T04:43:52.664Z,102159.30
2018-01-13T04:46:25.176Z,102166.90
2018-01-13T04:48:59.641Z,102150.61
2018-01-13T04:51:32.289Z,102159.89
2018-01-13T04:54:05.131Z,102151.52
2018-01-13T04:56:37.778Z,102156.61
2018-01-13T04:59:11.417Z,102157.30
2018-01-13T05:01:44.246Z,102157.82
2018-01-13T05:04:16.788Z,102162.73
2018-01-13T05:06:49.632Z,102163.45
2018-01-13T05:09:23.281Z,102164.72
2018-01-13T05:11:56.973Z,102165.40
2018-01-13T05:14:29.494Z,102165.92
2018-01-13T05:17:02.025Z,102165.09
2018-01-13T05:19:34.696Z,102165.73
2018-01-13T05:22:07.443Z,102167.54
2018-01-13T05:24:41.035Z,102168.08
2018-01-13T05:27:14.066Z,102163.38
2018-01-13T05:29:46.803Z,102164.47
2018-01-13T05:32:19.311Z,102167.96
2018-01-13T05:34:52.267Z,102165.59
2018-01-13T05:37:25.158Z,102166.83
2018-01-13T05:39:58.324Z,102168.75
2018-01-13T05:42:31.639Z,102170.53
2018-01-13T05:45:04.308Z,102170.04
2018-01-13T05:47:37.148Z,102166.27
2018-01-13T05:50:09.810Z,102167.54
2018-01-13T05:52:42.756Z,102170.41
2018-01-13T05:55:15.330Z,102172.77
2018-01-13T05:57:47.978Z,102178.13
2018-01-13T06:00:20.536Z,102171.02
2018-01-13T06:02:54.169Z,102166.90
2018-01-13T06:05:27.393Z,102166.11
2018-01-13T06:08:00.683Z,102164.00
2018-01-13T06:10:34.206Z,102161.64
2018-01-13T06:13:07.289Z,102167.00
2018-01-13T06:15:40.591Z,102166.02
2018-01-13T06:18:13.346Z,102171.28
2018-01-13T06:20:48.624Z,102170.98
2018-01-13T06:23:21.543Z,102165.31
2018-01-13T06:25:55.296Z,102168.55
2018-01-13T06:28:28.153Z,102163.16
2018-01-13T06:31:05.178Z,102159.44
2018-01-13T06:33:38.540Z,102166.41
2018-01-13T06:36:12.147Z,102164.07
2018-01-13T06:38:45.669Z,102165.81
2018-01-13T06:41:18.304Z,102159.22
2018-01-13T06:43:51.502Z,102162.36
2018-01-13T06:46:24.482Z,102156.56
2018-01-13T06:48:58.017Z,102151.31
2018-01-13T06:51:30.565Z,102150.09
2018-01-13T06:54:03.386Z,102153.17
2018-01-13T06:56:36.740Z,102145.84
2018-01-13T06:59:09.280Z,102148.94
2018-01-13T07:01:42.200Z,102149.48
2018-01-13T07:04:15.162Z,102154.53
2018-01-13T07:06:48.031Z,102151.04
2018-01-13T07:09:21.699Z,102159.55
2018-01-13T07:11:54.442Z,102163.46
2018-01-13T07:14:28.347Z,102156.95
2018-01-13T07:17:00.849Z,102159.22
2018-01-13T07:19:34.133Z,102163.60
2018-01-13T07:22:06.968Z,102161.34
2018-01-13T07:24:39.709Z,102159.79
2018-01-13T07:27:13.373Z,102162.77
2018-01-13T07:29:45.910Z,102168.70
2018-01-13T07:32:19.538Z,102160.10
2018-01-13T07:34:52.293Z,102168.53
2018-01-13T07:37:24.914Z,102176.76
2018-01-13T07:39:59.433Z,102173.20
2018-01-13T07:42:33.176Z,102184.62
2018-01-13T07:45:05.700Z,102181.14
2018-01-13T07:47:38.529Z,102180.94
2018-01-13T07:50:11.819Z,102183.81
2018-01-13T07:52:44.636Z,102184.19
2018-01-13T07:55:18.459Z,102183.30
2018-01-13T07:57:51.001Z,102190.63
2018-01-13T08:00:23.526Z,102182.91
2018-01-13T08:02:56.348Z,102189.11
2018-01-13T08:05:29.152Z,102193.15
2018-01-13T08:08:01.870Z,102193.63
2018-01-13T08:10:34.534Z,102196.58
2018-01-13T08:13:07.288Z,102185.66
2018-01-13T08:15:39.939Z,102185.82
2018-01-13T08:18:12.886Z,102185.50
2018-01-13T08:20:45.521Z,102182.39
2018-01-13T08:23:18.148Z,102188.55
2018-01-13T08:25:50.900Z,102197.94
2018-01-13T08:28:23.627Z,102196.77
2018-01-13T08:30:57.679Z,102200.85
2018-01-13T08:33:30.229Z,102193.89
2018-01-13T08:36:03.099Z,102202.07
2018-01-13T08:38:35.712Z,102200.02
2018-01-13T08:41:08.360Z,102201.83
2018-01-13T08:43:41.003Z,102208.58
2018-01-13T08:46:13.933Z,102204.30
2018-01-13T08:48:47.353Z,102209.67
2018-01-13T08:51:19.899Z,102206.27
2018-01-13T08:53:52.624Z,102203.85
2018-01-13T08:56:25.191Z,102209.50
2018-01-13T08:58:58.919Z,102205.56
2018-01-13T09:01:32.487Z,102211.02
2018-01-13T09:04:05.403Z,102212.48
2018-01-13T09:06:38.451Z,102209.16
2018-01-13T09:09:11.212Z,102209.41
2018-01-13T09:11:44.245Z,102210.30
2018-01-13T09:14:16.907Z,102216.86
2018-01-13T09:16:49.563Z,102220.93
2018-01-13T09:19:23.410Z,102220.99
2018-01-13T09:21:56.160Z,102216.42
2018-01-13T09:24:28.816Z,102217.89
2018-01-13T09:27:01.461Z,102218.71
2018-01-13T09:29:34.001Z,102214.90
2018-01-13T09:32:06.753Z,102222.77
2018-01-13T09:34:39.604Z,102217.30
2018-01-13T09:37:12.379Z,102217.83
2018-01-13T09:39:44.922Z,102221.67
2018-01-13T09:42:17.560Z,102219.87
2018-01-13T09:44:50.228Z,102223.58
2018-01-13T09:47:22.852Z,102220.55
2018-01-13T09:49:55.525Z,102219.68
2018-01-13T09:52:28.132Z,102219.90
2018-01-13T09:55:00.798Z,102221.89
2018-01-13T09:57:33.423Z,102214.45
2018-01-13T10:00:06.074Z,102216.38
2018-01-13T10:02:38.804Z,102217.94
2018-01-13T10:05:11.491Z,102221.69
2018-01-13T10:07:44.000Z,102224.20
2018-01-13T10:10:16.767Z,102225.61
2018-01-13T10:12:50.409Z,102225.80
2018-01-13T10:15:23.092Z,102226.33
2018-01-13T10:17:55.917Z,102220.37
2018-01-13T10:20:28.585Z,102223.14
2018-01-13T10:23:01.077Z,102218.15
2018-01-13T10:25:33.600Z,102214.67
2018-01-13T10:28:06.102Z,102212.80
2018-01-13T10:30:38.943Z,102211.84
2018-01-13T10:33:15.986Z,102219.67
2018-01-13T10:35:48.620Z,102210.92
2018-01-13T10:38:21.310Z,102217.49
2018-01-13T10:40:53.997Z,102219.59
2018-01-13T10:43:26.737Z,102213.84
2018-01-13T10:45:59.666Z,102216.55
2018-01-13T10:48:32.283Z,102213.33
2018-01-13T10:51:04.842Z,102208.39
2018-01-13T10:53:37.385Z,102218.17
2018-01-13T10:56:10.151Z,102214.05
2018-01-13T10:58:42.679Z,102207.36
2018-01-13T11:01:15.449Z,102211.06
2018-01-13T11:03:48.082Z,102204.91
2018-01-13T11:06:20.636Z,102211.84
2018-01-13T11:08:53.171Z,102206.83
2018-01-13T11:11:26.954Z,102204.69
2018-01-13T11:13:59.694Z,102201.02
2018-01-13T11:16:32.259Z,102199.69
2018-01-13T11:19:05.984Z,102198.87
2018-01-13T11:21:39.529Z,102194.48
2018-01-13T11:24:12.286Z,102200.70
2018-01-13T11:26:45.124Z,102201.11
2018-01-13T11:29:17.848Z,102199.63
2018-01-13T11:31:51.407Z,102202.67
2018-01-13T11:34:24.040Z,102197.64
2018-01-13T11:36:57.861Z,102205.12
2018-01-13T11:39:31.230Z,102191.00
2018-01-13T11:42:04.384Z,102200.38
2018-01-13T11:44:38.133Z,102202.94
2018-01-13T11:47:10.666Z,102194.33
2018-01-13T11:49:43.799Z,102192.37
2018-01-13T11:52:16.461Z,102190.66
2018-01-13T11:54:50.003Z,102193.00
2018-01-13T11:57:22.659Z,102187.72
2018-01-13T11:59:55.168Z,102187.67
2018-01-13T12:02:28.038Z,102185.66
2018-01-13T12:05:03.650Z,102185.70
2018-01-13T12:07:36.468Z,102186.28
2018-01-13T12:10:10.003Z,102180.50
2018-01-13T12:12:42.778Z,102183.41
2018-01-13T12:15:15.280Z,102190.12
2018-01-13T12:17:48.744Z,102183.06
2018-01-13T12:20:21.389Z,102187.54
2018-01-13T12:22:54.986Z,102181.05
2018-01-13T12:25:27.780Z,102185.19
2018-01-13T12:28:01.381Z,102178.59
2018-01-13T12:30:34.817Z,102173.76
2018-01-13T12:33:07.442Z,102173.09
2018-01-13T12:35:40.025Z,102175.69
2018-01-13T12:38:12.575Z,102169.37
2018-01-13T12:40:45.657Z,102165.44
2018-01-13T12:43:18.223Z,102164.08
2018-01-13T12:45:50.811Z,102163.30
2018-01-13T12:48:23.341Z,102164.69
2018-01-13T12:50:55.896Z,102160.05
2018-01-13T12:53:28.471Z,102160.44
2018-01-13T12:56:01.336Z,102160.56
2018-01-13T12:58:34.256Z,102166.19
2018-01-13T13:01:07.788Z,102155.72
2018-01-13T13:03:40.429Z,102155.27
2018-01-13T13:06:13.086Z,102150.23
2018-01-13T13:08:45.588Z,102145.61
2018-01-13T13:11:18.626Z,102137.79
2018-01-13T13:13:51.254Z,102135.89
2018-01-13T13:16:23.920Z,102147.54
2018-01-13T13:18:57.671Z,102141.77
2018-01-13T13:21:30.424Z,102131.41
2018-01-13T13:24:02.948Z,102136.70
2018-01-13T13:26:35.597Z,102137.30
2018-01-13T13:29:09.246Z,102137.70
2018-01-13T13:31:41.891Z,102128.89
2018-01-13T13:34:14.512Z,102127.52
2018-01-13T13:36:47.145Z,102123.82
2018-01-13T13:39:19.678Z,102136.02
2018-01-13T13:41:53.025Z,102139.16
2018-01-13T13:44:26.168Z,102137.34
2018-01-13T13:46:58.822Z,102139.05
2018-01-13T13:49:31.636Z,102133.30
2018-01-13T13:52:05.855Z,102130.67
2018-01-13T13:54:38.371Z,102133.89
2018-01-13T13:57:11.325Z,102130.58
2018-01-13T13:59:50.347Z,102131.63
2018-01-13T14:02:17.519Z,102130.15
2018-01-13T14:04:50.146Z,102124.13
2018-01-13T14:07:22.831Z,102129.48
2018-01-13T14:09:55.476Z,102137.61
2018-01-13T14:12:28.115Z,102139.14
2018-01-13T14:15:00.734Z,102142.02
2018-01-13T14:17:33.690Z,102135.60
2018-01-13T14:20:06.319Z,102140.17
2018-01-13T14:22:39.050Z,102133.70
2018-01-13T14:25:11.564Z,102134.26
2018-01-13T14:27:44.092Z,102135.52
2018-01-13T14:30:16.960Z,102136.88
2018-01-13T14:32:50.627Z,102138.45
2018-01-13T14:35:23.448Z,102139.41
2018-01-13T14:37:56.296Z,102141.92
2018-01-13T14:40:28.847Z,102142.78
2018-01-13T14:43:01.472Z,102144.64
2018-01-13T14:45:33.988Z,102143.17
2018-01-13T14:48:06.647Z,102140.50
2018-01-13T14:50:40.155Z,102131.92
2018-01-13T14:53:12.823Z,102140.46
2018-01-13T14:55:45.543Z,102138.15
2018-01-13T14:58:18.172Z,102131.13
2018-01-13T15:00:53.719Z,102133.42
2018-01-13T15:03:26.377Z,102135.17
2018-01-13T15:05:58.951Z,102126.20
2018-01-13T15:08:31.528Z,102133.09
2018-01-13T15:11:04.174Z,102128.28
2018-01-13T15:13:37.046Z,102131.02
2018-01-13T15:16:09.603Z,102137.72
2018-01-13T15:18:42.631Z,102139.32
2018-01-13T15:21:15.471Z,102133.39
2018-01-13T15:23:48.420Z,102135.77
2018-01-13T15:26:21.042Z,102144.40
2018-01-13T15:28:54.716Z,102149.34
2018-01-13T15:31:27.590Z,102148.09
2018-01-13T15:34:00.527Z,102147.30
2018-01-13T15:36:33.285Z,102142.47
2018-01-13T15:39:07.314Z,102139.42
2018-01-13T15:41:40.584Z,102147.41
2018-01-13T15:44:14.242Z,102140.08
2018-01-13T15:46:47.014Z,102146.20
2018-01-13T15:49:19.752Z,102148.47
2018-01-13T15:51:52.449Z,102152.14
2018-01-13T15:54:25.099Z,102143.72
2018-01-13T15:59:37.390Z,102147.64
2018-01-13T16:02:10.025Z,102150.95
2018-01-13T16:04:43.628Z,102148.33
2018-01-13T16:07:16.546Z,102143.72
2018-01-13T16:09:49.248Z,102155.89
2018-01-13T16:12:22.000Z,102140.32
2018-01-13T16:14:54.851Z,102146.45
2018-01-13T16:17:27.736Z,102142.78
2018-01-13T16:20:00.487Z,102137.79
2018-01-13T16:22:33.072Z,102144.02
2018-01-13T16:25:05.599Z,102144.17
2018-01-13T16:27:38.236Z,102149.69
2018-01-13T16:30:10.893Z,102148.00
2018-01-13T16:32:43.556Z,102147.44
2018-01-13T16:35:16.200Z,102155.25
2018-01-13T16:37:48.735Z,102144.41
2018-01-13T16:40:21.353Z,102151.06
2018-01-13T16:42:53.868Z,102156.03
2018-01-13T16:45:26.670Z,102149.77
2018-01-13T16:48:00.145Z,102156.13
2018-01-13T16:50:32.871Z,102146.31
2018-01-13T16:53:05.532Z,102149.99
2018-01-13T16:55:38.142Z,102146.64
2018-01-13T16:58:10.909Z,102143.95
2018-01-13T17:00:43.530Z,102145.06
2018-01-13T17:03:16.333Z,102138.45
2018-01-13T17:05:49.906Z,102140.00
2018-01-13T17:08:22.580Z,102141.48
2018-01-13T17:10:55.320Z,102135.55
2018-01-13T17:13:27.973Z,102140.20
2018-01-13T17:16:00.708Z,102145.38
2018-01-13T17:18:33.564Z,102151.49
2018-01-13T17:21:06.199Z,102145.19
2018-01-13T17:23:38.882Z,102139.20
2018-01-13T17:26:11.377Z,102146.00
2018-01-13T17:28:44.137Z,102146.92
2018-01-13T17:31:16.638Z,102142.23
2018-01-13T17:33:50.117Z,102152.20
2018-01-13T17:36:23.734Z,102139.92
2018-01-13T17:38:57.627Z,102142.25
2018-01-13T17:41:30.286Z,102140.23
2018-01-13T17:44:02.863Z,102132.35
2018-01-13T17:46:35.348Z,102137.20
2018-01-13T17:49:09.323Z,102125.23
2018-01-13T17:51:41.948Z,102123.34
2018-01-13T17:54:14.621Z,102119.46
2018-01-13T17:56:47.174Z,102123.48
2018-01-13T17:59:20.938Z,102128.16
2018-01-13T18:01:54.440Z,102131.55
2018-01-13T18:04:27.273Z,102120.49
2018-01-13T18:07:00.788Z,102113.42
2018-01-13T18:09:33.542Z,102123.17
2018-01-13T18:12:07.211Z,102117.55
2018-01-13T18:14:39.880Z,102122.20
2018-01-13T18:17:12.408Z,102122.25
2018-01-13T18:19:45.046Z,102117.73
2018-01-13T18:22:18.861Z,102113.16
2018-01-13T18:24:51.490Z,102121.56
2018-01-13T18:27:24.036Z,102119.67
2018-01-13T18:29:56.772Z,102121.98
2018-01-13T18:32:29.486Z,102123.05
2018-01-13T18:35:02.225Z,102119.91
2018-01-13T18:37:34.976Z,102112.07
2018-01-13T18:40:07.748Z,102113.21
2018-01-13T18:42:40.427Z,102117.47
2018-01-13T18:45:13.103Z,102123.44
2018-01-13T18:47:45.948Z,102122.47
2018-01-13T18:50:18.670Z,102122.80
2018-01-13T18:52:51.513Z,102116.69
2018-01-13T18:55:24.981Z,102115.83
2018-01-13T18:57:58.859Z,102097.58
2018-01-13T19:00:31.554Z,102101.66
2018-01-13T19:03:04.272Z,102092.70
2018-01-13T19:05:36.918Z,102096.84
2018-01-13T19:08:09.431Z,102092.91
2018-01-13T19:10:42.271Z,102091.27
2018-01-13T19:13:14.814Z,102095.39
2018-01-13T19:15:47.432Z,102087.36
2018-01-13T19:18:20.383Z,102095.81
2018-01-13T19:20:52.994Z,102097.36
2018-01-13T19:23:25.776Z,102093.86
2018-01-13T19:25:58.426Z,102107.66
2018-01-13T19:28:31.065Z,102098.84
2018-01-13T19:31:03.927Z,102096.22
2018-01-13T19:33:37.418Z,102101.13
2018-01-13T19:36:09.978Z,102100.08
2018-01-13T19:38:42.793Z,102099.36
2018-01-13T19:41:16.358Z,102107.13
2018-01-13T19:43:49.024Z,102102.22
2018-01-13T19:46:21.779Z,102097.44
2018-01-13T19:48:55.576Z,102101.73
2018-01-13T19:51:28.231Z,102096.85
2018-01-13T19:54:01.084Z,102100.66
2018-01-13T19:56:33.829Z,102096.25
2018-01-13T19:59:07.781Z,102102.83
2018-01-13T20:01:40.296Z,102100.13
2018-01-13T20:04:13.045Z,102107.66
2018-01-13T20:06:45.701Z,102108.50
2018-01-13T20:09:18.452Z,102108.59
2018-01-13T20:11:51.067Z,102109.48
2018-01-13T20:14:23.804Z,102111.08
2018-01-13T20:16:57.643Z,102113.05
2018-01-13T20:19:30.516Z,102108.15
2018-01-13T20:22:03.038Z,102109.05
2018-01-13T20:24:35.766Z,102112.95
2018-01-13T20:27:08.400Z,102105.78
2018-01-13T20:29:42.060Z,102112.96
2018-01-13T20:32:14.781Z,102105.94
2018-01-13T20:34:47.412Z,102097.97
2018-01-13T20:37:20.048Z,102112.06
2018-01-13T20:39:52.865Z,102112.32
2018-01-13T20:42:25.600Z,102104.59
2018-01-13T20:44:58.382Z,102108.28
2018-01-13T20:47:31.835Z,102099.45
2018-01-13T20:50:04.495Z,102098.45
2018-01-13T20:52:37.117Z,102097.06
2018-01-13T20:55:09.755Z,102095.55
2018-01-13T20:57:42.805Z,102086.48
2018-01-13T21:00:15.466Z,102085.79
2018-01-13T21:02:48.178Z,102086.09
2018-01-13T21:05:20.932Z,102088.22
2018-01-13T21:07:53.553Z,102086.55
2018-01-13T21:10:26.770Z,102084.59
2018-01-13T21:13:00.192Z,102077.35
2018-01-13T21:15:32.938Z,102078.14
2018-01-13T21:18:05.660Z,102076.06
2018-01-13T21:20:38.922Z,102075.70
2018-01-13T21:23:12.316Z,102082.78
2018-01-13T21:25:45.746Z,102083.14
2018-01-13T21:28:18.382Z,102071.11
2018-01-13T21:30:51.127Z,102079.97
2018-01-13T21:33:24.805Z,102074.86
2018-01-13T21:35:57.512Z,102068.89
2018-01-13T21:38:30.193Z,102075.36
2018-01-13T21:41:02.843Z,102065.77
2018-01-13T21:43:35.589Z,102077.98
2018-01-13T21:46:08.113Z,102074.91
2018-01-13T21:48:40.948Z,102065.92
2018-01-13T21:51:13.497Z,102067.91
2018-01-13T21:53:46.045Z,102065.61
2018-01-13T21:56:18.584Z,102063.08
2018-01-13T21:58:52.117Z,102065.98
2018-01-13T22:01:25.749Z,102057.99
2018-01-13T22:03:58.397Z,102061.08
2018-01-13T22:06:31.290Z,102054.78
2018-01-13T22:09:03.843Z,102061.73
2018-01-13T22:11:37.872Z,102059.50
2018-01-13T22:14:10.779Z,102059.36
2018-01-13T22:16:43.307Z,102060.06
2018-01-13T22:19:16.951Z,102044.34
2018-01-13T22:21:49.775Z,102053.71
2018-01-13T22:24:22.387Z,102057.97
2018-01-13T22:26:55.173Z,102043.72
2018-01-13T22:29:30.228Z,102051.05
2018-01-13T22:32:03.525Z,102049.87
2018-01-13T22:34:36.165Z,102050.73
2018-01-13T22:37:08.828Z,102045.59
2018-01-13T22:39:41.671Z,102052.19
2018-01-13T22:42:14.339Z,102044.47
2018-01-13T22:44:46.936Z,102048.87
2018-01-13T22:47:19.454Z,102045.66
2018-01-13T22:49:52.220Z,102049.39
2018-01-13T22:52:25.028Z,102045.75
2018-01-13T22:54:57.712Z,102048.13
2018-01-13T22:57:31.214Z,102049.86
2018-01-13T23:00:03.959Z,102051.52
2018-01-13T23:02:36.511Z,102043.22
2018-01-13T23:05:09.083Z,102045.63
2018-01-13T23:07:42.716Z,102034.39
2018-01-13T23:10:15.277Z,102044.34
2018-01-13T23:12:48.122Z,102036.45
2018-01-13T23:15:20.868Z,102030.16
2018-01-13T23:17:54.470Z,102038.50
2018-01-13T23:20:27.183Z,102038.77
2018-01-13T23:22:59.826Z,102033.70
2018-01-13T23:25:32.581Z,102030.22
2018-01-13T23:28:05.303Z,102024.13
2018-01-13T23:30:37.937Z,102025.64
2018-01-13T23:33:10.687Z,102030.84
2018-01-13T23:35:43.352Z,102022.59
2018-01-13T23:38:16.993Z,102020.52
2018-01-13T23:40:49.583Z,102023.50
2018-01-13T23:43:22.077Z,102024.50
2018-01-13T23:45:55.016Z,102011.41
2018-01-13T23:48:27.831Z,102007.30
2018-01-13T23:51:00.424Z,102003.92
2018-01-13T23:53:32.945Z,102003.72
2018-01-13T23:56:05.598Z,102004.19
2018-01-13T23:58:38.104Z,102003.80
